Terminal Aerodrome Forecast
Issued by NWS

Home | Current Version | Previous Version | Text Only | Print | Product List | Glossary On
Versions: 1 2 3 4 5 6 7 8 9 10 11 12 13 14 15 16 17
000
FTUS44 KTSA 180531
TAFMLC
TAF
KMLC 180531Z 1806/1906 18003KT 5SM BR SCT007 OVC015
     FM180900 VRB02KT 3SM BR BKN015
      TEMPO 1811/1815 1/4SM FG OVC003
     FM181500 19003KT 5SM BR OVC012
     FM181700 19006KT P6SM SCT020
     FM190200 16004KT P6SM BKN015=

USA.gov is the U.S. government's official web portal to all federal, state and local government web resources and services.